76NE weather

Good Samaritan Heliport
Kearney, Nebraska, United States

Public forecast

Using degrees Fahrenheit for public forecast. Weather courtesy of forecast.io.

Closest aviation weather report (METAR) to Good Samaritan Heliport

Closest report is Kearney Regional Airport, 3.6 nm (6.7 km) ENE. Retrieved 2020/06/07 04:56 UTC (19 minutes ago):

KEAR 070456Z AUTO 16018G25KT 10SM CLR 27/19 A2979 RMK AO2 PK WND 16027/0439 SLP064 T02670194

Closest aviation forecast (TAF) to Good Samaritan Heliport

Closest forecast is Kearney Regional Airport, 3.6 nm (6.7 km) ENE. Retrieved 2020-06-07 00:45 UTC (4 hours ago):

TAF KEAR 062342Z 0700/0724 16022G29KT P6SM BKN250 FM070300 15019KT P6SM SCT250 WS012/18050KT FM071400 18022G31KT P6SM FEW250 FM071800 16027G38KT P6SM FEW250